Página principal
METAR-TAF:

METAR-TAF

Aeroportos :

Armilla

Granada, Espanha

latitude: 37-08N, longitude: 003-38-08W, altura: 700 m

Observação actual do tempo

O boletim foi feito há 12 horas e 54 minutos, às 17:00 UTC
Vento 8 kt de oes-noroeste, variando entre oes-sudoeste e noroeste
Temperatura 20°C
Humidade 43%
Pressão 1013 hPa
Visibilidade 10 km ou mais
Nuvens dispersasa uma altura de 6500 ft

METAR: LEGA 251700Z 29008KT 250V320 9999 SCT065 20/07 Q1013

Hora: 07:54 (05:54 UTC)


TAF: em falta

Observações e previsões do tempo de mais de 4000 aeroportos (mensagens METAR e TAF).

As estações disponíveis são os pontos amarelos e vermelhos sobre o mapa.

Mova o rato sobre o mapa para ver o nome da estação.

Depois clique no ponto para visualizar as observações e previsões meteorológicas.

Para alterar o mapa : clique nos botões verdes com uma cruz preta para aumentar o zoom; no botão verde com uma pitada de zoom; ou nas setas verdes para mapas adjacentes.


METAR-TAF: